KFUL

Details ICAO KFUL (FUL)
Name Fullerton Muni
Region United States
Timezone America/Los_Angeles (UTC-8.0)
Plans Departing 34
Arriving 19
Stats Elevation 96 ft / 29 m (AMSL)
Location 33.872024° -117.979798°
Runways 1
Magnetic Variation 11.907° E
Sunrise 2017-12-12 14:49:17 UTC / 2017-12-12 06:49:17 Local
Sunset 2017-12-13 00:45:11 UTC / 2017-12-12 16:45:11 Local
Advertisement - Login to hide

Runways

ID Width Length Bearing (true) Bearing (mag) Surface Threshold Offset Overrun Length
06 75 ft / 23 m 3,115 ft / 950 m 76.92° 65.01° Asphalt 427 ft / 130 m 0 ft / 0 m
24 75 ft / 23 m 3,115 ft / 950 m 256.92° 245.01° Asphalt 253 ft / 77 m 0 ft / 0 m

Approach Navaids

Runway Type Ident Frequency Range Bearing (true) Bearing (mag) Slope Elevation
24 Localiser IFUL 108.90 MHz 18 nm / 33 km 256.92° 245.01° - 84 ft / 26 m (AMSL)
24 DME IFUL 108.90 MHz 18 nm / 33 km - - - 96 ft / 29 m (AMSL)

Map

Weather


0- 5 10 15 20 25 30 35+ Temperature / ° C

Clouds and Precipitation
Forecast for 2017-12-13 06:00 UTC. Updated an hour ago

Ground ~20,000 ft ~40,000 ft Winds

METAR

KFUL 130353Z 00000KT 10SM CLR 16/M04 A3003 RMK AO2 SLP169 T01561039

TAF

Not found

Frequencies

Recorded 125.05 MHz ATIS
Unicom 122.95 MHz UNICOM
Tower 119.10 MHz TWR
Unicom 119.10 MHz CTAF
Ground 121.80 MHz GND
Approach 124.65 MHz SOCAL APP/DEP
Warning: Do not use this data for real-world aviation or navigation. No guarantee of current accuracy is given.